createdAt,value
2018-06-17T00:01:57.138Z,16.10
2018-06-17T00:04:25.463Z,16.00
2018-06-17T00:06:53.082Z,16.00
2018-06-17T00:09:21.410Z,16.00
2018-06-17T00:11:48.968Z,16.00
2018-06-17T00:14:16.602Z,16.00
2018-06-17T00:16:44.170Z,16.00
2018-06-17T00:19:11.730Z,16.00
2018-06-17T00:21:39.325Z,16.00
2018-06-17T00:24:06.899Z,15.90
2018-06-17T00:26:34.459Z,16.00
2018-06-17T00:29:02.087Z,15.90
2018-06-17T00:31:29.643Z,16.00
2018-06-17T00:33:57.202Z,16.10
2018-06-17T00:36:24.798Z,16.00
2018-06-17T00:38:52.361Z,16.00
2018-06-17T00:41:19.958Z,16.00
2018-06-17T00:43:47.545Z,15.90
2018-06-17T00:46:15.110Z,15.90
2018-06-17T00:48:42.669Z,16.00
2018-06-17T00:51:10.282Z,16.00
2018-06-17T00:53:37.838Z,16.00
2018-06-17T00:56:05.399Z,16.00
2018-06-17T00:58:33.004Z,16.10
2018-06-17T01:01:01.335Z,16.20
2018-06-17T01:03:28.907Z,16.20
2018-06-17T01:05:56.517Z,16.10
2018-06-17T01:08:24.079Z,16.20
2018-06-17T01:10:51.639Z,16.30
2018-06-17T01:13:19.254Z,16.20
2018-06-17T01:15:46.810Z,16.10
2018-06-17T01:18:14.389Z,16.10
2018-06-17T01:20:42.097Z,16.00
2018-06-17T01:23:09.991Z,15.90
2018-06-17T01:25:37.554Z,15.80
2018-06-17T01:28:05.159Z,15.80
2018-06-17T01:30:33.493Z,15.80
2018-06-17T01:33:01.050Z,15.80
2018-06-17T01:35:28.674Z,15.70
2018-06-17T01:37:56.239Z,15.80
2018-06-17T01:40:23.798Z,15.80
2018-06-17T01:42:51.411Z,15.70
2018-06-17T01:45:18.988Z,15.60
2018-06-17T01:47:46.557Z,15.50
2018-06-17T01:50:14.929Z,15.50
2018-06-17T01:52:42.488Z,15.60
2018-06-17T01:55:10.057Z,15.50
2018-06-17T01:57:38.120Z,15.50
2018-06-17T02:00:05.669Z,15.40
2018-06-17T02:02:33.227Z,15.30
2018-06-17T02:05:18.756Z,15.30
2018-06-17T02:08:05.219Z,15.10
2018-06-17T02:10:38.799Z,15.10
2018-06-17T02:13:06.370Z,15.10
2018-06-17T02:15:33.930Z,15.00
2018-06-17T02:18:01.551Z,15.00
2018-06-17T02:20:29.130Z,14.90
2018-06-17T02:22:56.681Z,14.90
2018-06-17T02:25:24.280Z,14.90
2018-06-17T02:27:51.838Z,14.90
2018-06-17T02:30:19.401Z,14.90
2018-06-17T02:32:47.022Z,14.90
2018-06-17T02:35:15.332Z,15.00
2018-06-17T02:37:42.896Z,15.00
2018-06-17T02:40:10.512Z,15.00
2018-06-17T02:42:38.074Z,15.00
2018-06-17T02:45:06.409Z,14.90
2018-06-17T02:47:51.951Z,14.90
2018-06-17T02:50:19.509Z,14.90
2018-06-17T02:52:47.069Z,15.00
2018-06-17T02:55:15.073Z,15.00
2018-06-17T02:57:42.644Z,14.90
2018-06-17T03:00:10.235Z,14.90
2018-06-17T03:02:37.801Z,14.80
2018-06-17T03:05:06.139Z,14.80
2018-06-17T03:07:33.707Z,14.80
2018-06-17T03:10:01.310Z,14.80
2018-06-17T03:12:29.645Z,14.70
2018-06-17T03:14:57.201Z,14.70
2018-06-17T03:17:24.810Z,14.70
2018-06-17T03:19:53.452Z,14.60
2018-06-17T03:22:21.004Z,14.60
2018-06-17T03:24:48.675Z,14.60
2018-06-17T03:27:24.876Z,14.60
2018-06-17T03:29:59.438Z,14.50
2018-06-17T03:32:27.004Z,14.50
2018-06-17T03:34:54.568Z,14.50
2018-06-17T03:37:22.186Z,14.70
2018-06-17T03:39:49.751Z,14.70
2018-06-17T03:42:18.077Z,14.70
2018-06-17T03:44:45.681Z,14.60
2018-06-17T03:47:13.250Z,14.70
2018-06-17T03:49:41.578Z,14.60
2018-06-17T03:52:09.182Z,14.60
2018-06-17T03:54:36.750Z,14.60
2018-06-17T03:57:04.311Z,14.60
2018-06-17T03:59:33.174Z,14.60
2018-06-17T04:02:00.738Z,14.60
2018-06-17T04:04:28.313Z,14.70
2018-06-17T04:06:55.906Z,14.70
2018-06-17T04:09:23.482Z,14.80
2018-06-17T04:11:51.053Z,14.80
2018-06-17T04:14:18.660Z,15.00
2018-06-17T04:16:46.231Z,15.00
2018-06-17T04:19:13.788Z,14.90
2018-06-17T04:21:41.421Z,15.10
2018-06-17T04:24:08.985Z,15.00
2018-06-17T04:26:36.557Z,15.00
2018-06-17T04:29:04.161Z,15.00
2018-06-17T04:31:31.743Z,15.10
2018-06-17T04:34:00.060Z,15.20
2018-06-17T04:36:27.663Z,15.20
2018-06-17T04:38:55.985Z,15.20
2018-06-17T04:41:23.553Z,15.20
2018-06-17T04:43:51.836Z,15.10
2018-06-17T04:46:19.401Z,15.10
2018-06-17T04:48:46.973Z,15.20
2018-06-17T04:51:14.570Z,15.20
2018-06-17T04:53:42.150Z,15.30
2018-06-17T04:56:09.711Z,15.40
2018-06-17T04:58:37.315Z,15.30
2018-06-17T05:01:04.879Z,15.30
2018-06-17T05:03:32.438Z,15.40
2018-06-17T05:06:00.049Z,15.60
2018-06-17T05:08:27.610Z,15.60
2018-06-17T05:10:55.166Z,15.70
2018-06-17T05:13:22.773Z,15.80
2018-06-17T05:15:50.371Z,15.70
2018-06-17T05:18:17.895Z,15.70
2018-06-17T05:20:45.512Z,15.70
2018-06-17T05:23:13.077Z,15.70
2018-06-17T05:25:40.638Z,15.70
2018-06-17T05:28:08.840Z,15.80
2018-06-17T05:30:36.398Z,15.80
2018-06-17T05:33:03.987Z,15.80
2018-06-17T05:35:31.594Z,15.80
2018-06-17T05:37:59.166Z,15.90
2018-06-17T05:40:26.729Z,16.10
2018-06-17T05:42:54.340Z,16.20
2018-06-17T05:45:21.896Z,16.20
2018-06-17T05:47:49.494Z,16.30
2018-06-17T05:50:17.819Z,16.30
2018-06-17T05:52:45.379Z,16.40
2018-06-17T05:55:12.947Z,16.40
2018-06-17T05:57:40.542Z,16.60
2018-06-17T06:00:08.874Z,16.60
2018-06-17T06:02:36.448Z,16.60
2018-06-17T06:05:04.064Z,16.60
2018-06-17T06:07:31.679Z,16.70
2018-06-17T06:09:59.242Z,16.70
2018-06-17T06:12:27.507Z,16.70
2018-06-17T06:14:55.070Z,16.90
2018-06-17T06:17:22.629Z,17.00
2018-06-17T06:19:50.222Z,17.10
2018-06-17T06:22:18.555Z,17.50
2018-06-17T06:24:46.180Z,17.50
2018-06-17T06:27:13.709Z,17.60
2018-06-17T06:29:41.275Z,17.60
2018-06-17T06:32:08.838Z,17.70
2018-06-17T06:34:36.468Z,17.70
2018-06-17T06:37:04.037Z,17.80
2018-06-17T06:39:32.648Z,17.80
2018-06-17T06:42:00.261Z,17.90
2018-06-17T06:44:27.833Z,18.00
2018-06-17T06:46:55.397Z,18.10
2018-06-17T06:49:23.000Z,18.20
2018-06-17T06:51:51.331Z,18.40
2018-06-17T06:54:18.903Z,18.40
2018-06-17T06:56:47.074Z,18.50
2018-06-17T06:59:14.637Z,18.60
2018-06-17T07:02:19.506Z,18.70
2018-06-17T07:05:14.737Z,18.90
2018-06-17T07:08:19.415Z,18.90
2018-06-17T07:10:46.983Z,19.00
2018-06-17T07:13:14.543Z,19.10
2018-06-17T07:16:00.380Z,19.30
2018-06-17T07:18:27.941Z,19.40
2018-06-17T07:20:56.273Z,19.60
2018-06-17T07:23:23.881Z,19.60
2018-06-17T07:25:51.447Z,19.70
2018-06-17T07:28:19.013Z,19.80
2018-06-17T07:30:46.617Z,19.90
2018-06-17T07:33:14.184Z,19.90
2018-06-17T07:35:41.780Z,20.00
2018-06-17T07:38:09.915Z,20.10
2018-06-17T07:40:37.481Z,20.20
2018-06-17T07:43:05.042Z,20.20
2018-06-17T07:45:32.675Z,20.30
2018-06-17T07:48:00.211Z,20.50
2018-06-17T07:51:05.853Z,20.70
2018-06-17T07:53:34.185Z,20.60
2018-06-17T07:56:01.753Z,20.60
2018-06-17T07:58:29.357Z,20.60
2018-06-17T08:00:57.687Z,20.70
2018-06-17T08:03:25.255Z,20.70
2018-06-17T08:05:52.867Z,20.70
2018-06-17T08:08:21.195Z,20.70
2018-06-17T08:10:48.793Z,20.70
2018-06-17T08:13:16.919Z,20.80
2018-06-17T08:15:44.472Z,20.80
2018-06-17T08:18:12.037Z,20.80
2018-06-17T08:20:39.626Z,20.70
2018-06-17T08:23:07.192Z,20.70
2018-06-17T08:25:34.757Z,20.80
2018-06-17T08:28:02.355Z,20.90
2018-06-17T08:30:29.966Z,21.00
2018-06-17T08:32:57.495Z,21.20
2018-06-17T08:35:25.107Z,21.20
2018-06-17T08:37:52.666Z,21.30
2018-06-17T08:40:20.233Z,21.30
2018-06-17T08:42:47.840Z,21.40
2018-06-17T08:45:15.392Z,21.60
2018-06-17T08:47:42.957Z,21.60
2018-06-17T08:50:10.574Z,21.70
2018-06-17T08:52:38.141Z,21.70
2018-06-17T08:55:05.726Z,21.70
2018-06-17T08:57:33.328Z,21.70
2018-06-17T09:00:02.398Z,21.70
2018-06-17T09:02:29.972Z,21.70
2018-06-17T09:04:57.578Z,21.70
2018-06-17T09:07:25.140Z,21.70
2018-06-17T09:09:52.696Z,21.70
2018-06-17T09:12:20.307Z,21.80
2018-06-17T09:14:47.877Z,21.90
2018-06-17T09:17:15.444Z,22.00
2018-06-17T09:19:43.045Z,22.10
2018-06-17T09:22:10.596Z,22.20
2018-06-17T09:24:38.155Z,22.20
2018-06-17T09:27:05.756Z,22.30
2018-06-17T09:29:34.079Z,22.40
2018-06-17T09:32:01.696Z,22.40
2018-06-17T09:34:29.225Z,22.40
2018-06-17T09:36:56.778Z,22.40
2018-06-17T09:39:24.338Z,22.40
2018-06-17T09:41:51.946Z,22.40
2018-06-17T09:44:20.290Z,22.20
2018-06-17T09:46:47.855Z,22.20
2018-06-17T09:49:15.427Z,22.10
2018-06-17T09:51:43.766Z,22.00
2018-06-17T09:54:11.320Z,22.00
2018-06-17T09:56:38.928Z,22.00
2018-06-17T09:59:09.313Z,22.00
2018-06-17T10:01:36.941Z,21.90
2018-06-17T10:04:04.505Z,21.90
2018-06-17T10:06:32.055Z,21.90
2018-06-17T10:09:00.390Z,21.90
2018-06-17T10:11:28.762Z,21.90
2018-06-17T10:13:56.321Z,22.00
2018-06-17T10:16:23.921Z,22.10
2018-06-17T10:18:52.806Z,22.20
2018-06-17T10:21:20.383Z,22.30
2018-06-17T10:23:48.700Z,22.30
2018-06-17T10:26:16.685Z,22.30
2018-06-17T10:28:44.464Z,22.30
2018-06-17T10:31:12.029Z,22.40
2018-06-17T10:33:39.641Z,22.40
2018-06-17T10:36:07.232Z,22.40
2018-06-17T10:38:34.757Z,22.40
2018-06-17T10:41:02.346Z,22.40
2018-06-17T10:43:29.904Z,22.40
2018-06-17T10:45:59.837Z,22.40
2018-06-17T10:48:27.468Z,22.50
2018-06-17T10:50:55.030Z,22.50
2018-06-17T10:53:22.592Z,22.60
2018-06-17T10:55:50.215Z,22.50
2018-06-17T10:58:17.741Z,22.50
2018-06-17T11:00:45.308Z,22.50
2018-06-17T11:03:12.898Z,22.50
2018-06-17T11:05:40.555Z,22.60
2018-06-17T11:08:08.010Z,22.60
2018-06-17T11:10:35.623Z,22.60
2018-06-17T11:13:03.230Z,22.50
2018-06-17T11:15:30.741Z,22.70
2018-06-17T11:17:58.331Z,22.70
2018-06-17T11:20:25.885Z,22.60
2018-06-17T11:22:53.443Z,22.60
2018-06-17T11:25:21.113Z,22.60
2018-06-17T11:27:49.392Z,22.60
2018-06-17T11:30:16.947Z,22.60
2018-06-17T11:32:44.535Z,22.50
2018-06-17T11:35:12.082Z,22.50
2018-06-17T11:37:39.643Z,22.50
2018-06-17T11:40:07.235Z,22.40
2018-06-17T11:42:34.793Z,22.40
2018-06-17T11:45:02.355Z,22.40
2018-06-17T11:47:30.806Z,22.40
2018-06-17T11:49:58.355Z,22.40
2018-06-17T11:52:25.913Z,22.40
2018-06-17T11:54:53.499Z,22.30
2018-06-17T11:57:21.051Z,22.30
2018-06-17T11:59:48.645Z,22.30
2018-06-17T12:02:16.199Z,22.30
2018-06-17T12:04:43.758Z,22.30
2018-06-17T12:07:11.602Z,22.40
2018-06-17T12:09:39.279Z,22.50
2018-06-17T12:12:07.545Z,22.70
2018-06-17T12:14:35.098Z,22.70
2018-06-17T12:17:02.688Z,22.60
2018-06-17T12:19:30.244Z,22.60
2018-06-17T12:21:57.799Z,22.70
2018-06-17T12:24:25.931Z,22.80
2018-06-17T12:26:53.488Z,22.80
2018-06-17T12:29:21.050Z,22.90
2018-06-17T12:31:48.653Z,22.90
2018-06-17T12:34:16.210Z,22.80
2018-06-17T12:36:43.773Z,22.70
2018-06-17T12:39:11.857Z,22.70
2018-06-17T12:41:39.411Z,22.60
2018-06-17T12:44:06.967Z,22.50
2018-06-17T12:46:34.572Z,22.50
2018-06-17T12:49:02.161Z,22.50
2018-06-17T12:51:30.448Z,22.40
2018-06-17T12:53:58.039Z,22.40
2018-06-17T12:56:26.074Z,22.30
2018-06-17T12:58:53.624Z,22.30
2018-06-17T13:01:21.258Z,22.30
2018-06-17T13:03:48.788Z,22.20
2018-06-17T13:06:16.343Z,22.20
2018-06-17T13:08:44.415Z,22.20
2018-06-17T13:11:11.967Z,22.20
2018-06-17T13:13:39.525Z,22.20
2018-06-17T13:16:07.159Z,22.20
2018-06-17T13:18:34.718Z,22.20
2018-06-17T13:21:03.037Z,22.20
2018-06-17T13:23:30.656Z,22.10
2018-06-17T13:25:58.977Z,22.00
2018-06-17T13:28:26.534Z,22.00
2018-06-17T13:30:54.152Z,22.00
2018-06-17T13:33:22.496Z,21.90
2018-06-17T13:35:50.126Z,21.90
2018-06-17T13:38:17.684Z,21.90
2018-06-17T13:40:45.234Z,21.90
2018-06-17T13:43:12.865Z,21.90
2018-06-17T13:45:40.798Z,21.80
2018-06-17T13:48:08.323Z,21.90
2018-06-17T13:50:36.233Z,21.90
2018-06-17T13:53:03.837Z,21.90
2018-06-17T13:55:32.157Z,22.00
2018-06-17T13:57:59.708Z,22.00
2018-06-17T14:00:27.311Z,22.00
2018-06-17T14:02:54.868Z,22.10
2018-06-17T14:05:22.436Z,22.10
2018-06-17T14:07:50.788Z,22.30
2018-06-17T14:10:18.341Z,22.20
2018-06-17T14:12:45.894Z,22.30
2018-06-17T14:15:14.680Z,22.30
2018-06-17T14:17:42.236Z,22.20
2018-06-17T14:20:09.822Z,22.10
2018-06-17T14:22:38.202Z,22.00
2018-06-17T14:25:05.756Z,22.00
2018-06-17T14:27:33.317Z,22.00
2018-06-17T14:30:00.961Z,22.10
2018-06-17T14:32:28.519Z,22.00
2018-06-17T14:34:56.075Z,22.00
2018-06-17T14:37:23.878Z,22.10
2018-06-17T14:39:51.432Z,22.10
2018-06-17T14:42:19.002Z,22.10
2018-06-17T14:44:49.513Z,22.10
2018-06-17T14:47:17.069Z,22.00
2018-06-17T14:49:47.134Z,22.00
2018-06-17T14:52:14.744Z,22.00
2018-06-17T14:54:42.300Z,22.00
2018-06-17T14:57:09.910Z,22.10
2018-06-17T14:59:38.381Z,22.20
2018-06-17T15:02:05.937Z,22.20
2018-06-17T15:04:33.497Z,22.40
2018-06-17T15:07:01.157Z,22.40
2018-06-17T15:09:28.789Z,22.40
2018-06-17T15:11:56.266Z,22.40
2018-06-17T15:14:24.939Z,22.40
2018-06-17T15:16:52.453Z,22.30
2018-06-17T15:19:19.981Z,22.40
2018-06-17T15:21:48.045Z,22.50
2018-06-17T15:24:15.604Z,22.60
2018-06-17T15:26:43.163Z,22.80
2018-06-17T15:29:10.800Z,22.90
2018-06-17T15:31:39.144Z,23.10
2018-06-17T15:34:09.679Z,23.10
2018-06-17T15:36:37.283Z,23.30
2018-06-17T15:39:04.847Z,23.60
2018-06-17T15:41:32.401Z,23.70
2018-06-17T15:44:00.031Z,23.90
2018-06-17T15:46:27.588Z,24.10
2018-06-17T15:48:55.109Z,24.30
2018-06-17T15:51:22.710Z,24.40
2018-06-17T15:53:50.258Z,24.40
2018-06-17T15:56:17.811Z,24.40
2018-06-17T15:58:45.420Z,24.40
2018-06-17T16:01:13.739Z,24.50
2018-06-17T16:03:41.283Z,24.40
2018-06-17T16:06:08.889Z,24.60
2018-06-17T16:08:36.437Z,24.60
2018-06-17T16:11:03.998Z,24.50
2018-06-17T16:13:35.236Z,24.40
2018-06-17T16:16:20.862Z,24.30
2018-06-17T16:19:06.471Z,24.20
2018-06-17T16:21:34.031Z,24.10
2018-06-17T16:24:01.584Z,23.80
2018-06-17T16:26:30.603Z,23.50
2018-06-17T16:28:58.892Z,23.20
2018-06-17T16:31:26.445Z,23.20
2018-06-17T16:33:54.074Z,23.10
2018-06-17T16:36:22.394Z,22.80
2018-06-17T16:38:49.943Z,22.80
2018-06-17T16:41:18.347Z,22.70
2018-06-17T16:43:45.905Z,22.60
2018-06-17T16:46:13.478Z,22.50
2018-06-17T16:48:41.065Z,22.50
2018-06-17T16:51:08.618Z,22.50
2018-06-17T16:53:36.177Z,22.50
2018-06-17T16:56:06.661Z,22.60
2018-06-17T16:58:52.034Z,22.70
2018-06-17T17:01:19.622Z,22.80
2018-06-17T17:03:47.175Z,22.70
2018-06-17T17:06:14.729Z,22.50
2018-06-17T17:08:42.340Z,22.30
2018-06-17T17:11:09.900Z,22.10
2018-06-17T17:13:37.455Z,21.90
2018-06-17T17:16:06.315Z,21.80
2018-06-17T17:18:33.882Z,21.60
2018-06-17T17:21:01.501Z,21.70
2018-06-17T17:23:29.646Z,21.60
2018-06-17T17:25:57.166Z,21.50
2018-06-17T17:28:24.773Z,21.40
2018-06-17T17:30:52.409Z,21.20
2018-06-17T17:33:22.565Z,21.20
2018-06-17T17:36:05.978Z,20.90
2018-06-17T17:38:33.539Z,20.90
2018-06-17T17:41:01.087Z,20.80
2018-06-17T17:43:28.722Z,20.80
2018-06-17T17:45:56.276Z,20.70
2018-06-17T17:48:23.828Z,20.60
2018-06-17T17:50:51.427Z,20.50
2018-06-17T17:53:18.986Z,20.40
2018-06-17T17:55:46.545Z,20.30
2018-06-17T17:58:14.152Z,20.20
2018-06-17T18:00:41.710Z,20.10
2018-06-17T18:03:09.264Z,20.10
2018-06-17T18:05:36.862Z,20.00
2018-06-17T18:08:04.421Z,20.00
2018-06-17T18:10:31.985Z,19.90
2018-06-17T18:12:59.601Z,19.80
2018-06-17T18:15:27.158Z,19.70
2018-06-17T18:17:54.719Z,19.70
2018-06-17T18:20:22.334Z,19.80
2018-06-17T18:22:49.898Z,19.70
2018-06-17T18:25:17.790Z,19.60
2018-06-17T18:27:50.947Z,19.60
2018-06-17T18:30:36.836Z,19.60
2018-06-17T18:33:22.562Z,19.50
2018-06-17T18:36:08.347Z,19.50
2018-06-17T18:38:35.928Z,19.40
2018-06-17T18:41:03.481Z,19.40
2018-06-17T18:43:32.304Z,19.30
2018-06-17T18:46:00.684Z,19.30
2018-06-17T18:48:29.010Z,19.30
2018-06-17T18:50:56.562Z,19.20
2018-06-17T18:53:25.094Z,19.20
2018-06-17T18:55:52.683Z,19.20
2018-06-17T18:58:21.252Z,19.20
2018-06-17T19:00:48.850Z,19.10
2018-06-17T19:03:16.416Z,19.10
2018-06-17T19:05:43.972Z,19.10
2018-06-17T19:08:12.497Z,19.10
2018-06-17T19:10:42.497Z,19.00
2018-06-17T19:13:12.711Z,19.00
2018-06-17T19:15:40.328Z,18.90
2018-06-17T19:18:08.713Z,18.90
2018-06-17T19:20:36.266Z,18.90
2018-06-17T19:23:04.667Z,18.80
2018-06-17T19:25:32.216Z,18.80
2018-06-17T19:27:59.777Z,18.80
2018-06-17T19:30:27.388Z,18.70
2018-06-17T19:32:54.939Z,18.60
2018-06-17T19:35:23.669Z,18.60
2018-06-17T19:37:51.310Z,18.60
2018-06-17T19:40:18.837Z,18.50
2018-06-17T19:42:46.391Z,18.50
2018-06-17T19:45:13.999Z,18.40
2018-06-17T19:47:41.556Z,18.40
2018-06-17T19:50:09.111Z,18.30
2018-06-17T19:52:42.930Z,18.30
2018-06-17T19:55:13.093Z,18.30
2018-06-17T19:57:46.151Z,18.30
2018-06-17T20:00:16.932Z,18.20
2018-06-17T20:02:44.490Z,18.30
2018-06-17T20:05:12.049Z,18.30
2018-06-17T20:07:39.653Z,18.30
2018-06-17T20:10:07.205Z,18.30
2018-06-17T20:12:34.767Z,18.20
2018-06-17T20:15:02.451Z,18.20
2018-06-17T20:17:29.974Z,18.10
2018-06-17T20:19:57.516Z,18.00
2018-06-17T20:22:25.825Z,18.00
2018-06-17T20:24:53.388Z,18.00
2018-06-17T20:27:20.947Z,18.00
2018-06-17T20:29:48.938Z,17.90
2018-06-17T20:32:16.494Z,17.90
2018-06-17T20:34:59.342Z,17.90
2018-06-17T20:37:45.106Z,17.90
2018-06-17T20:40:12.690Z,17.90
2018-06-17T20:42:55.493Z,17.90
2018-06-17T20:45:23.548Z,17.80
2018-06-17T20:47:51.168Z,18.00
2018-06-17T20:50:18.691Z,18.10
2018-06-17T20:52:46.306Z,18.10
2018-06-17T20:55:13.862Z,18.10
2018-06-17T20:57:41.425Z,18.10
2018-06-17T21:00:09.031Z,18.10
2018-06-17T21:02:36.583Z,18.00
2018-06-17T21:05:04.138Z,18.00
2018-06-17T21:07:32.314Z,17.90
2018-06-17T21:09:59.872Z,17.90
2018-06-17T21:12:27.421Z,17.80
2018-06-17T21:14:55.398Z,17.80
2018-06-17T21:17:23.033Z,17.70
2018-06-17T21:20:05.408Z,17.70
2018-06-17T21:22:35.667Z,17.70
2018-06-17T21:25:03.235Z,17.70
2018-06-17T21:27:30.826Z,17.60
2018-06-17T21:30:00.823Z,17.80
2018-06-17T21:32:28.373Z,17.70
2018-06-17T21:34:56.429Z,17.70
2018-06-17T21:37:23.995Z,17.70
2018-06-17T21:39:51.557Z,17.70
2018-06-17T21:42:19.153Z,17.60
2018-06-17T21:44:46.703Z,17.60
2018-06-17T21:47:14.256Z,17.60
2018-06-17T21:49:41.843Z,17.50
2018-06-17T21:52:09.466Z,17.50
2018-06-17T21:54:37.016Z,17.50
2018-06-17T21:57:04.626Z,17.50
2018-06-17T21:59:32.176Z,17.40
2018-06-17T22:02:00.905Z,17.40
2018-06-17T22:04:28.492Z,17.40
2018-06-17T22:06:56.117Z,17.40
2018-06-17T22:09:23.633Z,17.30
2018-06-17T22:12:09.958Z,17.30
2018-06-17T22:14:37.821Z,17.30
2018-06-17T22:17:05.688Z,17.30
2018-06-17T22:19:33.283Z,17.20
2018-06-17T22:22:00.861Z,17.20
2018-06-17T22:24:29.197Z,17.30
2018-06-17T22:26:56.786Z,17.30
2018-06-17T22:29:24.345Z,17.30
2018-06-17T22:31:51.911Z,17.30
2018-06-17T22:34:19.981Z,17.20
2018-06-17T22:36:47.532Z,17.20
2018-06-17T22:39:15.113Z,17.20
2018-06-17T22:41:43.512Z,17.20
2018-06-17T22:44:11.063Z,17.20
2018-06-17T22:46:39.380Z,17.20
2018-06-17T22:49:06.969Z,17.10
2018-06-17T22:51:34.576Z,17.10
2018-06-17T22:54:37.607Z,16.90
2018-06-17T22:57:05.158Z,16.90
2018-06-17T22:59:32.710Z,16.90
2018-06-17T23:02:06.000Z,16.80
2018-06-17T23:04:33.555Z,16.80
2018-06-17T23:07:19.291Z,16.80
2018-06-17T23:09:46.838Z,16.80
2018-06-17T23:12:14.392Z,16.80
2018-06-17T23:14:42.039Z,16.70
2018-06-17T23:17:09.630Z,16.60
2018-06-17T23:19:37.152Z,16.60
2018-06-17T23:22:04.738Z,16.50
2018-06-17T23:24:32.303Z,16.50
2018-06-17T23:26:59.857Z,16.40
2018-06-17T23:29:27.443Z,16.40
2018-06-17T23:31:55.000Z,16.30
2018-06-17T23:34:22.552Z,16.30
2018-06-17T23:36:50.162Z,16.20
2018-06-17T23:39:18.477Z,16.20
2018-06-17T23:41:46.026Z,16.20
2018-06-17T23:44:13.620Z,16.10
2018-06-17T23:46:41.173Z,16.10
2018-06-17T23:49:14.432Z,16.00
2018-06-17T23:51:42.027Z,16.00
2018-06-17T23:54:15.220Z,16.00
2018-06-17T23:56:42.777Z,15.90
2018-06-17T23:59:10.757Z,15.90
